sensor_id;sensor_type;location;lat;lon;timestamp;P1;durP1;ratioP1;P2;durP2;ratioP2
15699;SDS011;7950;42.744;23.174;2023-06-22T00:02:18;7.80;;;7.00;;
15699;SDS011;7950;42.744;23.174;2023-06-22T00:04:46;8.03;;;7.33;;
15699;SDS011;7950;42.744;23.174;2023-06-22T00:07:15;7.60;;;6.90;;
15699;SDS011;7950;42.744;23.174;2023-06-22T00:09:43;7.87;;;7.17;;
15699;SDS011;7950;42.744;23.174;2023-06-22T00:12:12;8.80;;;7.90;;
15699;SDS011;7950;42.744;23.174;2023-06-22T00:14:40;9.93;;;7.23;;
15699;SDS011;7950;42.744;23.174;2023-06-22T00:17:10;9.57;;;7.43;;
15699;SDS011;7950;42.744;23.174;2023-06-22T00:19:39;8.57;;;7.67;;
15699;SDS011;7950;42.744;23.174;2023-06-22T00:22:07;8.30;;;7.43;;
15699;SDS011;7950;42.744;23.174;2023-06-22T00:24:36;8.17;;;7.37;;
15699;SDS011;7950;42.744;23.174;2023-06-22T00:27:04;7.87;;;7.07;;
15699;SDS011;7950;42.744;23.174;2023-06-22T00:29:33;8.27;;;7.50;;
15699;SDS011;7950;42.744;23.174;2023-06-22T00:32:02;8.47;;;7.57;;
15699;SDS011;7950;42.744;23.174;2023-06-22T00:34:33;8.50;;;7.50;;
15699;SDS011;7950;42.744;23.174;2023-06-22T00:37:02;9.47;;;7.40;;
15699;SDS011;7950;42.744;23.174;2023-06-22T00:39:31;7.70;;;7.00;;
15699;SDS011;7950;42.744;23.174;2023-06-22T00:42:00;8.23;;;7.27;;
15699;SDS011;7950;42.744;23.174;2023-06-22T00:44:29;8.13;;;7.33;;
15699;SDS011;7950;42.744;23.174;2023-06-22T00:46:57;8.50;;;7.70;;
15699;SDS011;7950;42.744;23.174;2023-06-22T00:49:26;10.27;;;8.43;;
15699;SDS011;7950;42.744;23.174;2023-06-22T00:51:57;9.30;;;8.07;;
15699;SDS011;7950;42.744;23.174;2023-06-22T00:54:26;9.10;;;7.73;;
15699;SDS011;7950;42.744;23.174;2023-06-22T00:56:55;8.43;;;7.63;;
15699;SDS011;7950;42.744;23.174;2023-06-22T00:59:25;8.00;;;7.30;;
15699;SDS011;7950;42.744;23.174;2023-06-22T01:01:55;9.13;;;7.83;;
15699;SDS011;7950;42.744;23.174;2023-06-22T01:04:24;10.57;;;7.43;;
15699;SDS011;7950;42.744;23.174;2023-06-22T01:07:06;8.03;;;7.23;;
15699;SDS011;7950;42.744;23.174;2023-06-22T01:09:46;8.93;;;8.13;;
15699;SDS011;7950;42.744;23.174;2023-06-22T01:12:25;8.97;;;8.10;;
15699;SDS011;7950;42.744;23.174;2023-06-22T01:14:59;8.60;;;7.80;;
15699;SDS011;7950;42.744;23.174;2023-06-22T01:17:36;9.87;;;8.27;;
15699;SDS011;7950;42.744;23.174;2023-06-22T01:20:11;8.27;;;7.47;;
15699;SDS011;7950;42.744;23.174;2023-06-22T01:22:46;8.60;;;7.80;;
15699;SDS011;7950;42.744;23.174;2023-06-22T01:25:31;11.90;;;8.50;;
15699;SDS011;7950;42.744;23.174;2023-06-22T01:28:17;9.03;;;8.07;;
15699;SDS011;7950;42.744;23.174;2023-06-22T01:31:16;9.07;;;8.17;;
15699;SDS011;7950;42.744;23.174;2023-06-22T01:33:49;9.23;;;8.30;;
15699;SDS011;7950;42.744;23.174;2023-06-22T01:36:23;9.10;;;8.20;;
15699;SDS011;7950;42.744;23.174;2023-06-22T01:38:53;8.90;;;8.00;;
15699;SDS011;7950;42.744;23.174;2023-06-22T01:41:24;9.63;;;8.73;;
15699;SDS011;7950;42.744;23.174;2023-06-22T01:43:55;9.40;;;8.27;;
15699;SDS011;7950;42.744;23.174;2023-06-22T01:46:25;9.60;;;8.70;;
15699;SDS011;7950;42.744;23.174;2023-06-22T01:48:54;8.93;;;8.13;;
15699;SDS011;7950;42.744;23.174;2023-06-22T01:51:23;9.23;;;8.43;;
15699;SDS011;7950;42.744;23.174;2023-06-22T01:53:52;9.03;;;7.97;;
15699;SDS011;7950;42.744;23.174;2023-06-22T01:56:20;8.60;;;7.80;;
15699;SDS011;7950;42.744;23.174;2023-06-22T01:58:50;9.50;;;8.60;;
15699;SDS011;7950;42.744;23.174;2023-06-22T02:01:38;8.63;;;7.63;;
15699;SDS011;7950;42.744;23.174;2023-06-22T02:04:13;10.87;;;8.50;;
15699;SDS011;7950;42.744;23.174;2023-06-22T02:06:54;7.63;;;6.93;;
15699;SDS011;7950;42.744;23.174;2023-06-22T02:09:29;8.33;;;7.53;;
15699;SDS011;7950;42.744;23.174;2023-06-22T02:12:00;8.83;;;8.03;;
15699;SDS011;7950;42.744;23.174;2023-06-22T02:14:32;8.60;;;7.80;;
15699;SDS011;7950;42.744;23.174;2023-06-22T02:17:04;8.23;;;7.23;;
15699;SDS011;7950;42.744;23.174;2023-06-22T02:19:36;8.87;;;8.00;;
15699;SDS011;7950;42.744;23.174;2023-06-22T02:22:05;8.63;;;7.83;;
15699;SDS011;7950;42.744;23.174;2023-06-22T02:24:34;8.60;;;7.80;;
15699;SDS011;7950;42.744;23.174;2023-06-22T02:27:03;9.03;;;8.17;;
15699;SDS011;7950;42.744;23.174;2023-06-22T02:29:33;8.90;;;8.10;;
15699;SDS011;7950;42.744;23.174;2023-06-22T02:32:02;11.63;;;8.50;;
15699;SDS011;7950;42.744;23.174;2023-06-22T02:34:33;10.03;;;8.63;;
15699;SDS011;7950;42.744;23.174;2023-06-22T02:37:03;9.07;;;8.17;;
15699;SDS011;7950;42.744;23.174;2023-06-22T02:39:32;11.80;;;8.90;;
15699;SDS011;7950;42.744;23.174;2023-06-22T02:42:00;10.17;;;8.97;;
15699;SDS011;7950;42.744;23.174;2023-06-22T02:47:20;10.00;;;8.67;;
15699;SDS011;7950;42.744;23.174;2023-06-22T02:49:48;10.40;;;9.30;;
15699;SDS011;7950;42.744;23.174;2023-06-22T02:52:17;10.10;;;9.10;;
15699;SDS011;7950;42.744;23.174;2023-06-22T02:54:45;10.43;;;8.93;;
15699;SDS011;7950;42.744;23.174;2023-06-22T02:57:14;10.23;;;9.03;;
15699;SDS011;7950;42.744;23.174;2023-06-22T02:59:42;9.50;;;8.43;;
15699;SDS011;7950;42.744;23.174;2023-06-22T03:02:11;10.00;;;9.00;;
15699;SDS011;7950;42.744;23.174;2023-06-22T03:04:41;9.93;;;8.80;;
15699;SDS011;7950;42.744;23.174;2023-06-22T03:07:10;10.20;;;9.17;;
15699;SDS011;7950;42.744;23.174;2023-06-22T03:09:38;10.20;;;9.10;;
15699;SDS011;7950;42.744;23.174;2023-06-22T03:12:08;10.47;;;9.33;;
15699;SDS011;7950;42.744;23.174;2023-06-22T03:14:37;10.90;;;9.80;;
15699;SDS011;7950;42.744;23.174;2023-06-22T03:17:06;11.03;;;9.93;;
15699;SDS011;7950;42.744;23.174;2023-06-22T03:19:34;11.77;;;10.57;;
15699;SDS011;7950;42.744;23.174;2023-06-22T03:22:04;10.83;;;9.73;;
15699;SDS011;7950;42.744;23.174;2023-06-22T03:24:33;12.07;;;9.93;;
15699;SDS011;7950;42.744;23.174;2023-06-22T03:27:04;11.33;;;9.87;;
15699;SDS011;7950;42.744;23.174;2023-06-22T03:29:33;10.67;;;9.57;;
15699;SDS011;7950;42.744;23.174;2023-06-22T03:32:02;14.13;;;10.60;;
15699;SDS011;7950;42.744;23.174;2023-06-22T03:34:32;11.27;;;10.07;;
15699;SDS011;7950;42.744;23.174;2023-06-22T03:37:05;10.80;;;9.77;;
15699;SDS011;7950;42.744;23.174;2023-06-22T03:39:33;11.17;;;9.60;;
15699;SDS011;7950;42.744;23.174;2023-06-22T03:42:02;11.13;;;9.90;;
15699;SDS011;7950;42.744;23.174;2023-06-22T03:44:31;10.47;;;9.47;;
15699;SDS011;7950;42.744;23.174;2023-06-22T03:46:59;10.63;;;9.53;;
15699;SDS011;7950;42.744;23.174;2023-06-22T03:49:28;10.60;;;9.50;;
15699;SDS011;7950;42.744;23.174;2023-06-22T03:51:57;9.80;;;8.90;;
15699;SDS011;7950;42.744;23.174;2023-06-22T03:54:27;10.93;;;9.83;;
15699;SDS011;7950;42.744;23.174;2023-06-22T03:56:57;10.20;;;9.13;;
15699;SDS011;7950;42.744;23.174;2023-06-22T03:59:25;9.37;;;8.47;;
15699;SDS011;7950;42.744;23.174;2023-06-22T04:01:54;9.83;;;8.83;;
15699;SDS011;7950;42.744;23.174;2023-06-22T04:04:23;10.10;;;9.20;;
15699;SDS011;7950;42.744;23.174;2023-06-22T04:06:51;9.30;;;8.50;;
15699;SDS011;7950;42.744;23.174;2023-06-22T04:09:20;8.97;;;8.17;;
15699;SDS011;7950;42.744;23.174;2023-06-22T04:11:50;10.23;;;9.17;;
15699;SDS011;7950;42.744;23.174;2023-06-22T04:14:19;11.33;;;8.70;;
15699;SDS011;7950;42.744;23.174;2023-06-22T04:16:47;13.10;;;8.93;;
15699;SDS011;7950;42.744;23.174;2023-06-22T04:19:16;9.60;;;8.70;;
15699;SDS011;7950;42.744;23.174;2023-06-22T04:21:44;9.73;;;8.83;;
15699;SDS011;7950;42.744;23.174;2023-06-22T04:24:15;9.70;;;8.77;;
15699;SDS011;7950;42.744;23.174;2023-06-22T04:26:43;10.23;;;9.20;;
15699;SDS011;7950;42.744;23.174;2023-06-22T04:29:14;9.73;;;8.80;;
15699;SDS011;7950;42.744;23.174;2023-06-22T04:31:43;9.57;;;8.67;;
15699;SDS011;7950;42.744;23.174;2023-06-22T04:34:14;9.50;;;8.70;;
15699;SDS011;7950;42.744;23.174;2023-06-22T04:36:43;9.83;;;8.30;;
15699;SDS011;7950;42.744;23.174;2023-06-22T04:39:11;9.93;;;8.93;;
15699;SDS011;7950;42.744;23.174;2023-06-22T04:41:40;9.27;;;8.40;;
15699;SDS011;7950;42.744;23.174;2023-06-22T04:44:09;8.80;;;7.90;;
15699;SDS011;7950;42.744;23.174;2023-06-22T04:46:40;9.70;;;8.70;;
15699;SDS011;7950;42.744;23.174;2023-06-22T04:49:09;9.17;;;8.27;;
15699;SDS011;7950;42.744;23.174;2023-06-22T04:51:39;9.73;;;8.73;;
15699;SDS011;7950;42.744;23.174;2023-06-22T04:54:10;9.60;;;8.60;;
15699;SDS011;7950;42.744;23.174;2023-06-22T04:56:38;9.27;;;8.43;;
15699;SDS011;7950;42.744;23.174;2023-06-22T04:59:07;9.97;;;8.87;;
15699;SDS011;7950;42.744;23.174;2023-06-22T05:01:41;10.40;;;9.40;;
15699;SDS011;7950;42.744;23.174;2023-06-22T05:04:09;11.53;;;9.33;;
15699;SDS011;7950;42.744;23.174;2023-06-22T05:06:38;10.23;;;9.23;;
15699;SDS011;7950;42.744;23.174;2023-06-22T05:09:07;11.03;;;9.93;;
15699;SDS011;7950;42.744;23.174;2023-06-22T05:11:36;11.30;;;10.20;;
15699;SDS011;7950;42.744;23.174;2023-06-22T05:14:04;12.97;;;10.43;;
15699;SDS011;7950;42.744;23.174;2023-06-22T05:16:34;11.33;;;9.83;;
15699;SDS011;7950;42.744;23.174;2023-06-22T05:19:04;10.80;;;9.70;;
15699;SDS011;7950;42.744;23.174;2023-06-22T05:21:33;10.97;;;9.87;;
15699;SDS011;7950;42.744;23.174;2023-06-22T05:24:01;11.90;;;10.63;;
15699;SDS011;7950;42.744;23.174;2023-06-22T05:26:30;14.77;;;10.77;;
15699;SDS011;7950;42.744;23.174;2023-06-22T05:29:01;16.03;;;11.00;;
15699;SDS011;7950;42.744;23.174;2023-06-22T05:31:31;12.00;;;10.20;;
15699;SDS011;7950;42.744;23.174;2023-06-22T05:34:00;17.20;;;10.50;;
15699;SDS011;7950;42.744;23.174;2023-06-22T05:36:30;13.47;;;10.53;;
15699;SDS011;7950;42.744;23.174;2023-06-22T05:38:59;13.03;;;11.00;;
15699;SDS011;7950;42.744;23.174;2023-06-22T05:41:39;12.03;;;10.30;;
15699;SDS011;7950;42.744;23.174;2023-06-22T05:44:07;12.23;;;10.00;;
15699;SDS011;7950;42.744;23.174;2023-06-22T05:46:36;16.80;;;11.10;;
15699;SDS011;7950;42.744;23.174;2023-06-22T05:49:11;15.70;;;11.00;;
15699;SDS011;7950;42.744;23.174;2023-06-22T05:51:42;16.53;;;11.40;;
15699;SDS011;7950;42.744;23.174;2023-06-22T05:54:11;12.67;;;10.53;;
15699;SDS011;7950;42.744;23.174;2023-06-22T05:56:42;10.83;;;9.80;;
15699;SDS011;7950;42.744;23.174;2023-06-22T05:59:10;13.27;;;10.93;;
15699;SDS011;7950;42.744;23.174;2023-06-22T06:01:39;12.63;;;10.57;;
15699;SDS011;7950;42.744;23.174;2023-06-22T06:04:08;10.97;;;9.97;;
15699;SDS011;7950;42.744;23.174;2023-06-22T06:06:37;11.27;;;10.00;;
15699;SDS011;7950;42.744;23.174;2023-06-22T06:09:06;15.20;;;11.80;;
15699;SDS011;7950;42.744;23.174;2023-06-22T06:11:35;12.47;;;10.37;;
15699;SDS011;7950;42.744;23.174;2023-06-22T06:14:04;15.50;;;11.00;;
15699;SDS011;7950;42.744;23.174;2023-06-22T06:16:32;21.73;;;11.63;;
15699;SDS011;7950;42.744;23.174;2023-06-22T06:19:01;13.57;;;11.03;;
15699;SDS011;7950;42.744;23.174;2023-06-22T06:21:29;11.90;;;10.50;;
15699;SDS011;7950;42.744;23.174;2023-06-22T06:34:44;11.37;;;10.17;;
15699;SDS011;7950;42.744;23.174;2023-06-22T06:37:13;11.50;;;10.40;;
15699;SDS011;7950;42.744;23.174;2023-06-22T06:39:42;12.33;;;11.10;;
15699;SDS011;7950;42.744;23.174;2023-06-22T06:42:10;15.53;;;11.80;;
15699;SDS011;7950;42.744;23.174;2023-06-22T06:44:39;11.37;;;10.20;;
15699;SDS011;7950;42.744;23.174;2023-06-22T06:47:08;11.70;;;10.50;;
15699;SDS011;7950;42.744;23.174;2023-06-22T06:49:37;11.33;;;10.10;;
15699;SDS011;7950;42.744;23.174;2023-06-22T06:52:07;11.80;;;10.60;;
15699;SDS011;7950;42.744;23.174;2023-06-22T06:54:36;12.67;;;11.00;;
15699;SDS011;7950;42.744;23.174;2023-06-22T06:57:04;11.20;;;10.13;;
15699;SDS011;7950;42.744;23.174;2023-06-22T06:59:33;11.40;;;10.40;;
15699;SDS011;7950;42.744;23.174;2023-06-22T07:02:01;11.17;;;9.97;;
15699;SDS011;7950;42.744;23.174;2023-06-22T07:04:30;13.10;;;11.53;;
15699;SDS011;7950;42.744;23.174;2023-06-22T07:07:00;11.67;;;10.47;;
15699;SDS011;7950;42.744;23.174;2023-06-22T07:09:31;14.10;;;9.90;;
15699;SDS011;7950;42.744;23.174;2023-06-22T07:12:00;16.97;;;12.20;;
15699;SDS011;7950;42.744;23.174;2023-06-22T07:14:28;11.57;;;10.37;;
15699;SDS011;7950;42.744;23.174;2023-06-22T07:16:58;11.87;;;10.70;;
15699;SDS011;7950;42.744;23.174;2023-06-22T07:19:27;12.60;;;11.30;;
15699;SDS011;7950;42.744;23.174;2023-06-22T07:21:56;12.03;;;10.80;;
15699;SDS011;7950;42.744;23.174;2023-06-22T07:24:25;14.63;;;12.50;;
15699;SDS011;7950;42.744;23.174;2023-06-22T07:26:55;15.93;;;11.47;;
15699;SDS011;7950;42.744;23.174;2023-06-22T07:29:24;12.50;;;10.97;;
15699;SDS011;7950;42.744;23.174;2023-06-22T07:31:53;14.63;;;11.47;;
15699;SDS011;7950;42.744;23.174;2023-06-22T07:34:22;13.07;;;11.67;;
15699;SDS011;7950;42.744;23.174;2023-06-22T07:36:51;14.47;;;11.77;;
15699;SDS011;7950;42.744;23.174;2023-06-22T07:39:20;13.20;;;11.90;;
15699;SDS011;7950;42.744;23.174;2023-06-22T07:41:52;12.77;;;11.53;;
15699;SDS011;7950;42.744;23.174;2023-06-22T07:44:22;13.13;;;11.87;;
15699;SDS011;7950;42.744;23.174;2023-06-22T07:46:51;12.97;;;11.63;;
15699;SDS011;7950;42.744;23.174;2023-06-22T07:49:20;13.10;;;11.80;;
15699;SDS011;7950;42.744;23.174;2023-06-22T07:51:49;13.43;;;12.07;;
15699;SDS011;7950;42.744;23.174;2023-06-22T07:54:18;13.67;;;12.07;;
15699;SDS011;7950;42.744;23.174;2023-06-22T07:56:46;13.83;;;12.53;;
15699;SDS011;7950;42.744;23.174;2023-06-22T07:59:15;14.20;;;12.90;;
15699;SDS011;7950;42.744;23.174;2023-06-22T08:01:45;13.70;;;12.17;;
15699;SDS011;7950;42.744;23.174;2023-06-22T08:04:15;13.47;;;12.17;;
15699;SDS011;7950;42.744;23.174;2023-06-22T08:06:44;13.73;;;12.17;;
15699;SDS011;7950;42.744;23.174;2023-06-22T08:09:12;12.70;;;11.50;;
15699;SDS011;7950;42.744;23.174;2023-06-22T08:11:41;12.60;;;11.40;;
15699;SDS011;7950;42.744;23.174;2023-06-22T08:14:10;12.13;;;10.73;;
15699;SDS011;7950;42.744;23.174;2023-06-22T08:16:38;20.60;;;11.67;;
15699;SDS011;7950;42.744;23.174;2023-06-22T08:19:08;16.33;;;11.60;;
15699;SDS011;7950;42.744;23.174;2023-06-22T08:21:36;11.27;;;10.27;;
15699;SDS011;7950;42.744;23.174;2023-06-22T08:24:05;13.43;;;10.30;;
15699;SDS011;7950;42.744;23.174;2023-06-22T08:26:34;11.00;;;9.82;;
15699;SDS011;7950;42.744;23.174;2023-06-22T08:29:04;11.00;;;9.90;;
15699;SDS011;7950;42.744;23.174;2023-06-22T08:31:32;11.10;;;10.18;;
15699;SDS011;7950;42.744;23.174;2023-06-22T08:34:01;10.90;;;9.80;;
15699;SDS011;7950;42.744;23.174;2023-06-22T08:36:31;11.70;;;9.52;;
15699;SDS011;7950;42.744;23.174;2023-06-22T08:39:08;11.07;;;10.07;;
15699;SDS011;7950;42.744;23.174;2023-06-22T08:41:36;11.10;;;9.23;;
15699;SDS011;7950;42.744;23.174;2023-06-22T08:44:05;15.75;;;9.68;;
15699;SDS011;7950;42.744;23.174;2023-06-22T08:46:33;10.23;;;9.23;;
15699;SDS011;7950;42.744;23.174;2023-06-22T08:49:02;9.68;;;8.82;;
15699;SDS011;7950;42.744;23.174;2023-06-22T08:51:32;9.82;;;8.88;;
15699;SDS011;7950;42.744;23.174;2023-06-22T08:54:01;10.88;;;8.95;;
15699;SDS011;7950;42.744;23.174;2023-06-22T08:56:30;9.93;;;9.02;;
15699;SDS011;7950;42.744;23.174;2023-06-22T08:58:58;10.52;;;9.52;;
15699;SDS011;7950;42.744;23.174;2023-06-22T09:01:27;11.85;;;9.93;;
15699;SDS011;7950;42.744;23.174;2023-06-22T09:03:56;10.45;;;9.30;;
15699;SDS011;7950;42.744;23.174;2023-06-22T09:06:26;10.57;;;9.57;;
15699;SDS011;7950;42.744;23.174;2023-06-22T09:08:59;9.27;;;8.43;;
15699;SDS011;7950;42.744;23.174;2023-06-22T09:11:27;10.68;;;9.45;;
15699;SDS011;7950;42.744;23.174;2023-06-22T09:13:56;63.65;;;12.68;;
15699;SDS011;7950;42.744;23.174;2023-06-22T09:16:24;11.38;;;9.82;;
15699;SDS011;7950;42.744;23.174;2023-06-22T09:18:53;10.00;;;9.10;;
15699;SDS011;7950;42.744;23.174;2023-06-22T09:21:21;9.98;;;8.55;;
15699;SDS011;7950;42.744;23.174;2023-06-22T09:23:51;12.55;;;10.27;;
15699;SDS011;7950;42.744;23.174;2023-06-22T09:26:58;10.48;;;8.50;;
15699;SDS011;7950;42.744;23.174;2023-06-22T09:33:09;9.73;;;8.82;;
15699;SDS011;7950;42.744;23.174;2023-06-22T09:35:38;9.88;;;8.80;;
15699;SDS011;7950;42.744;23.174;2023-06-22T09:38:06;10.35;;;9.43;;
15699;SDS011;7950;42.744;23.174;2023-06-22T09:40:35;9.95;;;9.00;;
15699;SDS011;7950;42.744;23.174;2023-06-22T09:43:08;10.70;;;9.70;;
15699;SDS011;7950;42.744;23.174;2023-06-22T09:45:36;10.45;;;9.00;;
15699;SDS011;7950;42.744;23.174;2023-06-22T09:48:06;9.35;;;8.55;;
15699;SDS011;7950;42.744;23.174;2023-06-22T09:50:36;9.18;;;8.38;;
15699;SDS011;7950;42.744;23.174;2023-06-22T09:53:05;9.30;;;8.45;;
15699;SDS011;7950;42.744;23.174;2023-06-22T09:55:33;9.80;;;8.90;;
15699;SDS011;7950;42.744;23.174;2023-06-22T09:58:02;9.52;;;8.35;;
15699;SDS011;7950;42.744;23.174;2023-06-22T10:00:32;9.70;;;8.77;;
15699;SDS011;7950;42.744;23.174;2023-06-22T10:03:00;10.07;;;8.43;;
15699;SDS011;7950;42.744;23.174;2023-06-22T10:05:29;9.23;;;8.35;;
15699;SDS011;7950;42.744;23.174;2023-06-22T10:07:58;8.80;;;8.00;;
15699;SDS011;7950;42.744;23.174;2023-06-22T10:10:27;33.92;;;9.80;;
15699;SDS011;7950;42.744;23.174;2023-06-22T10:12:56;10.45;;;8.90;;
15699;SDS011;7950;42.744;23.174;2023-06-22T10:15:36;10.55;;;8.15;;
15699;SDS011;7950;42.744;23.174;2023-06-22T10:18:05;9.23;;;8.40;;
15699;SDS011;7950;42.744;23.174;2023-06-22T10:20:33;8.70;;;8.00;;
15699;SDS011;7950;42.744;23.174;2023-06-22T10:23:02;9.15;;;8.32;;
15699;SDS011;7950;42.744;23.174;2023-06-22T10:25:31;9.35;;;8.38;;
15699;SDS011;7950;42.744;23.174;2023-06-22T10:27:59;9.15;;;8.27;;
15699;SDS011;7950;42.744;23.174;2023-06-22T10:30:28;9.40;;;8.50;;
15699;SDS011;7950;42.744;23.174;2023-06-22T10:32:58;9.43;;;8.50;;
15699;SDS011;7950;42.744;23.174;2023-06-22T10:35:26;10.15;;;8.73;;
15699;SDS011;7950;42.744;23.174;2023-06-22T10:37:56;8.77;;;8.02;;
15699;SDS011;7950;42.744;23.174;2023-06-22T10:40:24;12.63;;;7.97;;
15699;SDS011;7950;42.744;23.174;2023-06-22T10:42:53;9.93;;;8.65;;
15699;SDS011;7950;42.744;23.174;2023-06-22T10:45:21;9.40;;;8.60;;
15699;SDS011;7950;42.744;23.174;2023-06-22T10:47:50;9.75;;;8.10;;
15699;SDS011;7950;42.744;23.174;2023-06-22T10:50:20;8.68;;;7.88;;
15699;SDS011;7950;42.744;23.174;2023-06-22T10:52:50;9.60;;;8.80;;
15699;SDS011;7950;42.744;23.174;2023-06-22T10:55:19;9.23;;;8.23;;
15699;SDS011;7950;42.744;23.174;2023-06-22T10:57:47;9.25;;;8.32;;
15699;SDS011;7950;42.744;23.174;2023-06-22T11:00:16;9.40;;;8.23;;
15699;SDS011;7950;42.744;23.174;2023-06-22T11:02:45;8.68;;;7.93;;
15699;SDS011;7950;42.744;23.174;2023-06-22T11:05:14;9.15;;;8.25;;
15699;SDS011;7950;42.744;23.174;2023-06-22T11:07:44;10.57;;;8.05;;
15699;SDS011;7950;42.744;23.174;2023-06-22T11:10:13;9.25;;;8.35;;
15699;SDS011;7950;42.744;23.174;2023-06-22T11:12:41;8.57;;;7.78;;
15699;SDS011;7950;42.744;23.174;2023-06-22T11:15:10;8.95;;;8.07;;
15699;SDS011;7950;42.744;23.174;2023-06-22T11:17:39;8.65;;;7.93;;
15699;SDS011;7950;42.744;23.174;2023-06-22T11:20:08;9.23;;;8.00;;
15699;SDS011;7950;42.744;23.174;2023-06-22T11:22:38;9.25;;;7.72;;
15699;SDS011;7950;42.744;23.174;2023-06-22T11:25:09;9.00;;;8.20;;
15699;SDS011;7950;42.744;23.174;2023-06-22T11:27:39;9.60;;;8.10;;
15699;SDS011;7950;42.744;23.174;2023-06-22T11:30:08;8.57;;;7.80;;
15699;SDS011;7950;42.744;23.174;2023-06-22T11:32:37;8.45;;;7.65;;
15699;SDS011;7950;42.744;23.174;2023-06-22T11:35:06;8.95;;;8.15;;
15699;SDS011;7950;42.744;23.174;2023-06-22T11:37:35;8.50;;;7.80;;
15699;SDS011;7950;42.744;23.174;2023-06-22T11:40:04;9.20;;;8.40;;
15699;SDS011;7950;42.744;23.174;2023-06-22T11:42:37;8.95;;;8.15;;
15699;SDS011;7950;42.744;23.174;2023-06-22T11:45:06;8.95;;;7.88;;
15699;SDS011;7950;42.744;23.174;2023-06-22T11:47:35;8.13;;;7.32;;
15699;SDS011;7950;42.744;23.174;2023-06-22T11:50:06;8.85;;;8.05;;
15699;SDS011;7950;42.744;23.174;2023-06-22T11:52:36;8.98;;;8.07;;
15699;SDS011;7950;42.744;23.174;2023-06-22T11:55:05;8.80;;;8.10;;
15699;SDS011;7950;42.744;23.174;2023-06-22T11:57:36;7.90;;;7.20;;
15699;SDS011;7950;42.744;23.174;2023-06-22T12:00:06;9.02;;;8.18;;
15699;SDS011;7950;42.744;23.174;2023-06-22T12:02:43;9.20;;;8.30;;
15699;SDS011;7950;42.744;23.174;2023-06-22T12:05:13;8.32;;;7.57;;
15699;SDS011;7950;42.744;23.174;2023-06-22T12:07:41;28.13;;;9.00;;
15699;SDS011;7950;42.744;23.174;2023-06-22T12:10:10;21.80;;;10.85;;
15699;SDS011;7950;42.744;23.174;2023-06-22T12:12:40;18.20;;;10.48;;
15699;SDS011;7950;42.744;23.174;2023-06-22T12:26:36;9.30;;;7.47;;
15699;SDS011;7950;42.744;23.174;2023-06-22T12:29:04;11.30;;;7.53;;
15699;SDS011;7950;42.744;23.174;2023-06-22T12:43:54;7.13;;;5.57;;
15699;SDS011;7950;42.744;23.174;2023-06-22T12:46:22;8.70;;;5.70;;
15699;SDS011;7950;42.744;23.174;2023-06-22T12:48:51;7.73;;;6.70;;
15699;SDS011;7950;42.744;23.174;2023-06-22T12:51:20;10.27;;;6.27;;
15699;SDS011;7950;42.744;23.174;2023-06-22T12:53:49;7.83;;;6.77;;
15699;SDS011;7950;42.744;23.174;2023-06-22T12:56:18;9.67;;;7.03;;
15699;SDS011;7950;42.744;23.174;2023-06-22T12:58:47;12.60;;;8.43;;
15699;SDS011;7950;42.744;23.174;2023-06-22T13:01:17;10.63;;;8.83;;
15699;SDS011;7950;42.744;23.174;2023-06-22T13:03:45;9.77;;;7.80;;
15699;SDS011;7950;42.744;23.174;2023-06-22T13:06:14;11.07;;;7.87;;
15699;SDS011;7950;42.744;23.174;2023-06-22T13:08:42;10.63;;;7.10;;
15699;SDS011;7950;42.744;23.174;2023-06-22T13:11:31;11.10;;;6.47;;
15699;SDS011;7950;42.744;23.174;2023-06-22T13:13:59;9.53;;;6.83;;
15699;SDS011;7950;42.744;23.174;2023-06-22T13:16:33;10.63;;;7.13;;
15699;SDS011;7950;42.744;23.174;2023-06-22T13:19:01;10.13;;;6.67;;
15699;SDS011;7950;42.744;23.174;2023-06-22T13:21:30;8.00;;;6.37;;
15699;SDS011;7950;42.744;23.174;2023-06-22T13:24:00;9.83;;;7.30;;
15699;SDS011;7950;42.744;23.174;2023-06-22T13:38:37;7.33;;;6.43;;
15699;SDS011;7950;42.744;23.174;2023-06-22T13:41:06;8.47;;;6.90;;
15699;SDS011;7950;42.744;23.174;2023-06-22T13:43:34;8.27;;;7.10;;
15699;SDS011;7950;42.744;23.174;2023-06-22T13:46:03;12.10;;;7.50;;
15699;SDS011;7950;42.744;23.174;2023-06-22T13:48:31;49.27;;;24.90;;
15699;SDS011;7950;42.744;23.174;2023-06-22T13:51:00;22.67;;;14.20;;
15699;SDS011;7950;42.744;23.174;2023-06-22T13:53:28;14.47;;;10.60;;
15699;SDS011;7950;42.744;23.174;2023-06-22T14:07:57;12.23;;;7.60;;
15699;SDS011;7950;42.744;23.174;2023-06-22T14:10:26;8.70;;;7.60;;
15699;SDS011;7950;42.744;23.174;2023-06-22T14:12:54;8.87;;;7.90;;
15699;SDS011;7950;42.744;23.174;2023-06-22T14:15:23;8.93;;;7.93;;
15699;SDS011;7950;42.744;23.174;2023-06-22T14:17:51;8.57;;;7.50;;
15699;SDS011;7950;42.744;23.174;2023-06-22T14:20:20;10.77;;;7.27;;
15699;SDS011;7950;42.744;23.174;2023-06-22T14:22:49;8.43;;;7.23;;
15699;SDS011;7950;42.744;23.174;2023-06-22T14:25:18;9.93;;;7.33;;
15699;SDS011;7950;42.744;23.174;2023-06-22T14:27:47;8.73;;;7.90;;
15699;SDS011;7950;42.744;23.174;2023-06-22T14:30:16;10.07;;;8.63;;
15699;SDS011;7950;42.744;23.174;2023-06-22T14:32:44;10.53;;;9.27;;
15699;SDS011;7950;42.744;23.174;2023-06-22T14:35:13;17.43;;;9.63;;
15699;SDS011;7950;42.744;23.174;2023-06-22T14:37:41;11.07;;;9.40;;
15699;SDS011;7950;42.744;23.174;2023-06-22T14:40:10;11.93;;;9.87;;
15699;SDS011;7950;42.744;23.174;2023-06-22T14:42:41;11.40;;;9.13;;
15699;SDS011;7950;42.744;23.174;2023-06-22T14:45:10;11.90;;;9.50;;
15699;SDS011;7950;42.744;23.174;2023-06-22T14:47:39;13.33;;;9.03;;
15699;SDS011;7950;42.744;23.174;2023-06-22T14:50:08;11.60;;;9.30;;
15699;SDS011;7950;42.744;23.174;2023-06-22T15:03:35;11.50;;;8.97;;
15699;SDS011;7950;42.744;23.174;2023-06-22T15:06:04;10.43;;;8.50;;
15699;SDS011;7950;42.744;23.174;2023-06-22T15:08:33;9.20;;;7.43;;
15699;SDS011;7950;42.744;23.174;2023-06-22T15:11:04;9.10;;;7.90;;
15699;SDS011;7950;42.744;23.174;2023-06-22T15:13:33;8.60;;;7.70;;
15699;SDS011;7950;42.744;23.174;2023-06-22T15:16:02;12.47;;;8.40;;
15699;SDS011;7950;42.744;23.174;2023-06-22T15:18:31;9.80;;;8.80;;
15699;SDS011;7950;42.744;23.174;2023-06-22T15:21:03;9.30;;;8.33;;
15699;SDS011;7950;42.744;23.174;2023-06-22T15:23:32;9.00;;;8.10;;
15699;SDS011;7950;42.744;23.174;2023-06-22T15:26:02;12.20;;;9.13;;
15699;SDS011;7950;42.744;23.174;2023-06-22T15:28:32;11.40;;;9.40;;
15699;SDS011;7950;42.744;23.174;2023-06-22T15:31:03;9.60;;;8.70;;
15699;SDS011;7950;42.744;23.174;2023-06-22T15:33:33;10.13;;;8.53;;
15699;SDS011;7950;42.744;23.174;2023-06-22T15:36:05;10.73;;;9.03;;
15699;SDS011;7950;42.744;23.174;2023-06-22T15:38:34;8.87;;;7.97;;
15699;SDS011;7950;42.744;23.174;2023-06-22T15:41:03;8.53;;;7.63;;
15699;SDS011;7950;42.744;23.174;2023-06-22T15:43:32;10.17;;;8.73;;
15699;SDS011;7950;42.744;23.174;2023-06-22T15:46:00;8.60;;;7.80;;
15699;SDS011;7950;42.744;23.174;2023-06-22T15:48:29;10.53;;;7.60;;
15699;SDS011;7950;42.744;23.174;2023-06-22T15:50:57;10.23;;;8.03;;
15699;SDS011;7950;42.744;23.174;2023-06-22T15:53:27;8.90;;;7.43;;
15699;SDS011;7950;42.744;23.174;2023-06-22T15:55:56;10.77;;;8.77;;
15699;SDS011;7950;42.744;23.174;2023-06-22T15:58:25;9.63;;;7.97;;
15699;SDS011;7950;42.744;23.174;2023-06-22T16:00:53;9.60;;;7.67;;
15699;SDS011;7950;42.744;23.174;2023-06-22T16:03:22;13.10;;;8.80;;
15699;SDS011;7950;42.744;23.174;2023-06-22T16:05:51;9.87;;;7.57;;
15699;SDS011;7950;42.744;23.174;2023-06-22T16:08:19;8.67;;;7.83;;
15699;SDS011;7950;42.744;23.174;2023-06-22T16:10:49;9.60;;;8.17;;